createdAt,value
2023-02-03T00:03:41.053Z,14.13
2023-02-03T00:08:43.678Z,14.15
2023-02-03T00:13:46.132Z,14.25
2023-02-03T00:18:48.645Z,12.43
2023-02-03T00:23:51.191Z,13.50
2023-02-03T00:28:53.695Z,13.43
2023-02-03T00:33:57.457Z,12.40
2023-02-03T00:39:01.424Z,13.40
2023-02-03T00:44:04.280Z,14.20
2023-02-03T00:49:07.437Z,14.50
2023-02-03T00:54:11.366Z,14.75
2023-02-03T00:59:13.904Z,14.52
2023-02-03T01:04:16.333Z,16.25
2023-02-03T01:09:18.794Z,15.68
2023-02-03T01:14:21.206Z,15.48
2023-02-03T01:19:24.047Z,15.77
2023-02-03T01:24:26.515Z,14.60
2023-02-03T01:29:28.926Z,14.73
2023-02-03T01:34:31.320Z,16.15
2023-02-03T01:39:34.804Z,14.30
2023-02-03T01:44:48.017Z,14.18
2023-02-03T01:49:56.703Z,13.20
2023-02-03T01:55:02.907Z,14.05
2023-02-03T02:00:08.304Z,13.05
2023-02-03T02:05:25.996Z,12.45
2023-02-03T02:10:30.663Z,13.68
2023-02-03T02:15:55.429Z,12.20
2023-02-03T02:21:32.832Z,12.82
2023-02-03T02:27:12.360Z,10.95
2023-02-03T02:32:36.123Z,9.85
2023-02-03T02:37:51.389Z,9.63
2023-02-03T02:43:11.295Z,9.90
2023-02-03T02:48:20.644Z,8.88
2023-02-03T02:53:27.489Z,9.68
2023-02-03T02:58:32.446Z,9.38
2023-02-03T03:03:35.198Z,9.05
2023-02-03T03:09:01.655Z,8.00
2023-02-03T03:14:06.907Z,7.75
2023-02-03T03:19:13.127Z,8.88
2023-02-03T03:24:22.851Z,9.43
2023-02-03T03:29:31.578Z,9.35
2023-02-03T03:34:34.721Z,9.30
2023-02-03T03:39:54.387Z,9.38
2023-02-03T03:45:15.521Z,8.32
2023-02-03T03:50:27.027Z,8.43
2023-02-03T03:55:33.622Z,7.25
2023-02-03T04:00:39.862Z,7.97
2023-02-03T04:05:42.962Z,9.40
2023-02-03T04:10:45.749Z,9.02
2023-02-03T04:15:48.362Z,9.55
2023-02-03T04:20:51.246Z,9.25
2023-02-03T04:25:53.907Z,7.90
2023-02-03T04:30:56.313Z,9.00
2023-02-03T04:35:58.765Z,8.30
2023-02-03T04:41:01.176Z,9.18
2023-02-03T04:46:05.476Z,8.57
2023-02-03T04:51:09.381Z,7.25
2023-02-03T04:56:12.013Z,9.18
2023-02-03T05:01:14.598Z,7.95
2023-02-03T05:06:17.187Z,7.00
2023-02-03T05:11:19.825Z,7.28
2023-02-03T05:16:22.523Z,6.47
2023-02-03T05:21:25.094Z,8.65
2023-02-03T05:26:27.592Z,6.72
2023-02-03T05:31:30.080Z,8.52
2023-02-03T05:36:32.846Z,7.53
2023-02-03T05:41:54.116Z,8.10
2023-02-03T05:46:59.348Z,9.18
2023-02-03T05:52:01.886Z,10.35
2023-02-03T05:57:04.395Z,10.38
2023-02-03T06:02:06.978Z,11.23
2023-02-03T06:07:09.497Z,9.90
2023-02-03T06:12:12.019Z,9.63
2023-02-03T06:17:14.508Z,8.38
2023-02-03T06:22:16.883Z,10.68
2023-02-03T06:27:19.507Z,10.27
2023-02-03T06:32:22.124Z,9.10
2023-02-03T06:37:24.956Z,7.40
2023-02-03T06:42:27.897Z,7.95
2023-02-03T06:47:30.543Z,7.93
2023-02-03T06:52:33.078Z,7.65
2023-02-03T06:57:35.674Z,8.82
2023-02-03T07:02:38.226Z,9.48
2023-02-03T07:07:40.858Z,8.25
2023-02-03T07:12:44.998Z,6.72
2023-02-03T07:17:54.861Z,6.47
2023-02-03T07:22:58.730Z,10.05
2023-02-03T07:28:01.849Z,11.77
2023-02-03T07:33:04.714Z,11.40
2023-02-03T07:38:07.278Z,10.30
2023-02-03T07:43:09.788Z,10.35
2023-02-03T07:48:13.254Z,10.45
2023-02-03T07:53:16.059Z,9.70
2023-02-03T07:58:18.586Z,9.15
2023-02-03T08:03:21.117Z,11.48
2023-02-03T08:08:23.623Z,10.88
2023-02-03T08:13:26.183Z,14.15
2023-02-03T08:18:30.942Z,19.65
2023-02-03T08:23:34.790Z,11.73
2023-02-03T08:28:37.383Z,8.93
2023-02-03T08:33:40.062Z,9.27
2023-02-03T08:38:42.639Z,9.27
2023-02-03T08:43:45.887Z,9.48
2023-02-03T08:48:48.361Z,9.70
2023-02-03T08:53:50.915Z,9.18
2023-02-03T08:58:55.918Z,8.00
2023-02-03T09:03:58.497Z,8.35
2023-02-03T09:09:01.156Z,8.38
2023-02-03T09:14:07.458Z,9.30
2023-02-03T09:19:10.223Z,8.23
2023-02-03T09:24:12.639Z,8.90
2023-02-03T09:29:15.218Z,8.48
2023-02-03T09:34:17.935Z,10.38
2023-02-03T09:39:20.453Z,9.07
2023-02-03T09:44:43.099Z,10.50
2023-02-03T09:50:01.965Z,14.27
2023-02-03T09:55:20.821Z,14.82
2023-02-03T10:00:31.150Z,13.48
2023-02-03T10:05:33.538Z,13.80
2023-02-03T10:11:12.751Z,14.82
2023-02-03T10:16:30.304Z,10.68
2023-02-03T10:21:47.475Z,7.78
2023-02-03T10:26:51.370Z,7.70
2023-02-03T10:31:58.886Z,8.32
2023-02-03T10:37:23.213Z,5.28
2023-02-03T10:42:25.972Z,6.10
2023-02-03T10:47:44.011Z,4.57
2023-02-03T10:52:47.125Z,5.25
2023-02-03T10:57:50.327Z,5.53
2023-02-03T11:03:42.137Z,4.85
2023-02-03T11:08:47.894Z,4.20
2023-02-03T11:14:02.546Z,5.60
2023-02-03T11:19:22.600Z,4.10
2023-02-03T11:24:25.031Z,4.68
2023-02-03T11:29:30.951Z,4.90
2023-02-03T11:34:34.853Z,5.00
2023-02-03T11:39:37.345Z,4.63
2023-02-03T11:44:39.734Z,4.47
2023-02-03T11:49:59.740Z,5.32
2023-02-03T11:55:21.254Z,4.90
2023-02-03T12:00:37.533Z,4.85
2023-02-03T12:06:02.747Z,4.32
2023-02-03T12:11:28.664Z,4.53
2023-02-03T12:16:43.257Z,4.75
2023-02-03T12:21:50.424Z,4.60
2023-02-03T12:27:07.251Z,5.88
2023-02-03T12:32:30.896Z,5.32
2023-02-03T12:37:51.593Z,4.75
2023-02-03T12:43:22.248Z,4.93
2023-02-03T12:48:39.610Z,5.25
2023-02-03T12:53:48.569Z,5.70
2023-02-03T12:58:57.790Z,5.63
2023-02-03T13:04:12.156Z,5.18
2023-02-03T13:09:29.411Z,5.47
2023-02-03T13:15:13.101Z,4.32
2023-02-03T13:20:21.779Z,5.75
2023-02-03T13:25:42.089Z,6.05
2023-02-03T13:31:24.050Z,5.35
2023-02-03T13:37:03.840Z,4.80
2023-02-03T13:42:24.515Z,5.70
2023-02-03T13:47:30.199Z,6.10
2023-02-03T13:52:47.840Z,5.32
2023-02-03T13:57:53.120Z,5.57
2023-02-03T14:02:56.925Z,5.68
2023-02-03T14:08:30.723Z,5.80
2023-02-03T14:13:33.127Z,6.25
2023-02-03T14:18:45.463Z,6.47
2023-02-03T14:23:57.777Z,5.95
2023-02-03T14:29:01.143Z,5.70
2023-02-03T14:34:14.784Z,5.68
2023-02-03T14:39:22.834Z,5.85
2023-02-03T14:44:55.076Z,6.57
2023-02-03T14:50:06.332Z,5.95
2023-02-03T14:55:40.993Z,6.15
2023-02-03T15:00:43.531Z,6.50
2023-02-03T15:05:48.359Z,6.97
2023-02-03T15:10:50.852Z,5.28
2023-02-03T15:15:56.071Z,5.95
2023-02-03T15:20:59.155Z,6.57
2023-02-03T15:26:04.134Z,6.53
2023-02-03T15:31:28.177Z,6.05
2023-02-03T15:36:52.499Z,6.63
2023-02-03T15:41:57.307Z,6.95
2023-02-03T15:47:03.148Z,6.10
2023-02-03T15:52:10.741Z,5.72
2023-02-03T15:57:19.058Z,7.03
2023-02-03T16:02:47.548Z,5.43
2023-02-03T16:07:50.022Z,8.00
2023-02-03T16:12:52.455Z,6.40
2023-02-03T16:17:58.238Z,6.07
2023-02-03T16:23:05.379Z,5.88
2023-02-03T16:28:32.035Z,7.07
2023-02-03T16:33:53.416Z,5.93
2023-02-03T16:39:14.676Z,5.57
2023-02-03T16:44:38.001Z,5.75
2023-02-03T16:49:59.237Z,6.07
2023-02-03T16:55:01.764Z,6.32
2023-02-03T17:00:06.451Z,5.97
2023-02-03T17:05:08.923Z,6.18
2023-02-03T17:10:12.065Z,7.75
2023-02-03T17:15:16.020Z,6.47
2023-02-03T17:20:18.711Z,5.93
2023-02-03T17:25:23.209Z,6.05
2023-02-03T17:30:26.763Z,7.75
2023-02-03T17:35:40.155Z,7.18
2023-02-03T17:56:54.571Z,6.28
2023-02-03T18:01:59.809Z,6.25
2023-02-03T18:07:04.968Z,5.65
2023-02-03T18:12:13.613Z,6.07
2023-02-03T18:22:18.293Z,2.92
2023-02-03T18:27:25.817Z,3.78
2023-02-03T18:32:30.558Z,4.70
2023-02-03T18:37:33.056Z,4.43
2023-02-03T18:42:38.469Z,4.05
2023-02-03T18:47:43.684Z,3.83
2023-02-03T18:52:54.149Z,4.93
2023-02-03T18:57:59.698Z,4.70
2023-02-03T19:03:02.197Z,4.00
2023-02-03T19:08:04.671Z,4.15
2023-02-03T19:13:10.241Z,4.38
2023-02-03T19:18:12.797Z,4.53
2023-02-03T19:23:18.094Z,3.47
2023-02-03T19:28:30.465Z,3.78
2023-02-03T19:33:37.140Z,4.88
2023-02-03T19:38:39.762Z,2.92
2023-02-03T19:43:42.246Z,4.78
2023-02-03T19:48:47.080Z,6.00
2023-02-03T19:53:54.776Z,5.65
2023-02-03T19:58:57.246Z,7.25
2023-02-03T20:04:00.257Z,4.60
2023-02-03T20:09:04.441Z,4.30
2023-02-03T20:14:06.986Z,3.60
2023-02-03T20:19:09.426Z,4.35
2023-02-03T20:24:12.132Z,4.53
2023-02-03T20:29:14.656Z,4.45
2023-02-03T20:34:17.170Z,4.40
2023-02-03T20:39:20.995Z,5.53
2023-02-03T20:44:23.538Z,4.30
2023-02-03T20:49:26.224Z,6.57
2023-02-03T20:54:28.682Z,5.00
2023-02-03T20:59:32.051Z,4.32
2023-02-03T21:04:53.196Z,4.47
2023-02-03T21:09:57.774Z,3.10
2023-02-03T21:15:00.298Z,4.57
2023-02-03T21:20:02.688Z,4.82
2023-02-03T21:25:07.406Z,4.63
2023-02-03T21:30:35.497Z,5.75
2023-02-03T21:35:38.618Z,4.72
2023-02-03T21:40:41.278Z,4.50
2023-02-03T21:45:44.678Z,3.88
2023-02-03T21:50:47.225Z,3.78
2023-02-03T21:55:49.796Z,4.40
2023-02-03T22:00:57.529Z,4.63
2023-02-03T22:06:09.240Z,5.00
2023-02-03T22:11:12.000Z,4.78
2023-02-03T22:16:17.464Z,4.60
2023-02-03T22:21:20.071Z,4.63
2023-02-03T22:26:22.881Z,5.03
2023-02-03T22:31:25.360Z,3.22
2023-02-03T22:36:27.964Z,4.35
2023-02-03T22:41:30.463Z,5.18
2023-02-03T22:46:32.937Z,6.03
2023-02-03T22:51:35.346Z,6.47
2023-02-03T22:56:37.814Z,3.50
2023-02-03T23:01:40.245Z,3.70
2023-02-03T23:06:42.659Z,4.20
2023-02-03T23:11:45.294Z,4.93
2023-02-03T23:16:47.757Z,4.82
2023-02-03T23:21:50.352Z,4.65
2023-02-03T23:26:52.853Z,4.55
2023-02-03T23:31:55.329Z,3.60
2023-02-03T23:37:00.046Z,3.67
2023-02-03T23:42:02.484Z,4.05
2023-02-03T23:47:05.020Z,4.88
2023-02-03T23:52:07.497Z,4.28
2023-02-03T23:57:10.044Z,4.65
